Hallam, Nebraska
Current Conditions -  °F | °C
As of 5:55 AM on Wednesday 28 Jan 2015 (Local Time) from KBIE Reporting Station
Clear Clear  
Wind Chill: -2°   Ceiling: Unl
Heat Index:   Visibility: 10mi
Dew Point: -2°   Wind: 5mph
Humidity: 85%   Direction: 90°E
Pressure: 29.84"   Gusts: NA
Location:  40.54°N, 96.79°W
Report Text: KBIE 281155Z AUTO 09004KT 10SM CLR 00/M02 A2984 RMK AO2 T00011022 10054 20001 401601050
Loading
Personal Weather Stations






























Interactive Weather Map New forecast layout! Learn more

10-Day Weather Forecast

Advertisements
Track Severe Weather on mobile